Time,TemperatureF,DewpointF,PressureIn,WindDirection,WindDirectionDegrees,WindSpeedMPH,WindSpeedGustMPH,Humidity,HourlyPrecipIn,Conditions,Clouds,dailyrainin,SoftwareType,DateUTC
2013-03-21 00:00:00,65.0,-99.9,30.05,East,99,13.0,17.0,-999,-99.99,,,-99.99,,2013-03-21 05:00:00,
2013-03-21 00:33:00,65.0,-99.9,30.05,East,99,13.0,17.0,-999,-99.99,,,-99.99,,2013-03-21 05:33:00,
2013-03-21 00:44:00,65.0,-99.9,30.05,East,99,13.0,17.0,-999,-99.99,,,-99.99,,2013-03-21 05:44:00,
2013-03-21 00:52:00,65.0,-99.9,30.05,East,99,13.0,17.0,-999,-99.99,,,-99.99,,2013-03-21 05:52:00,
2013-03-21 01:00:00,65.0,-99.9,30.02,ESE,116,9.0,15.0,-999,-99.99,,,-99.99,,2013-03-21 06:00:00,
2013-03-21 01:32:00,65.0,-99.9,30.02,ESE,116,9.0,15.0,-999,-99.99,,,-99.99,,2013-03-21 06:32:00,
2013-03-21 01:42:00,65.0,-99.9,30.02,ESE,116,9.0,15.0,-999,-99.99,,,-99.99,,2013-03-21 06:42:00,
2013-03-21 01:52:00,65.0,-99.9,30.02,ESE,116,9.0,15.0,-999,-99.99,,,-99.99,,2013-03-21 06:52:00,
2013-03-21 02:00:00,65.0,-99.9,30.00,ESE,116,13.0,16.0,-999,-99.99,,,-99.99,,2013-03-21 07:00:00,
2013-03-21 02:33:00,65.0,-99.9,30.00,ESE,116,13.0,16.0,-999,-99.99,,,-99.99,,2013-03-21 07:33:00,
2013-03-21 02:43:00,65.0,-99.9,30.00,ESE,116,13.0,16.0,-999,-99.99,,,-99.99,,2013-03-21 07:43:00,
2013-03-21 02:53:00,65.0,-99.9,30.00,ESE,116,13.0,16.0,-999,-99.99,,,-99.99,,2013-03-21 07:53:00,
2013-03-21 03:00:00,65.0,-99.9,29.98,ESE,109,11.0,14.0,-999,-99.99,,,-99.99,,2013-03-21 08:00:00,
2013-03-21 03:33:00,65.0,-99.9,29.98,ESE,109,11.0,14.0,-999,-99.99,,,-99.99,,2013-03-21 08:33:00,
2013-03-21 03:43:00,65.0,-99.9,29.98,ESE,109,11.0,14.0,-999,-99.99,,,-99.99,,2013-03-21 08:43:00,
2013-03-21 03:52:00,65.0,-99.9,29.98,ESE,109,11.0,14.0,-999,-99.99,,,-99.99,,2013-03-21 08:52:00,
2013-03-21 04:00:00,65.0,-99.9,29.95,ESE,111,12.0,14.0,-999,-99.99,,,-99.99,,2013-03-21 09:00:00,
2013-03-21 04:33:00,65.0,-99.9,29.95,ESE,111,12.0,14.0,-999,-99.99,,,-99.99,,2013-03-21 09:33:00,
2013-03-21 04:43:00,65.0,-99.9,29.95,ESE,111,12.0,14.0,-999,-99.99,,,-99.99,,2013-03-21 09:43:00,
2013-03-21 04:53:00,65.0,-99.9,29.95,ESE,111,12.0,14.0,-999,-99.99,,,-99.99,,2013-03-21 09:53:00,
2013-03-21 05:00:00,66.0,-99.9,29.93,ESE,112,11.0,12.0,-999,-99.99,,,-99.99,,2013-03-21 10:00:00,
2013-03-21 05:34:00,66.0,-99.9,29.93,ESE,112,11.0,12.0,-999,-99.99,,,-99.99,,2013-03-21 10:34:00,
2013-03-21 05:43:00,66.0,-99.9,29.93,ESE,112,11.0,12.0,-999,-99.99,,,-99.99,,2013-03-21 10:43:00,
2013-03-21 05:53:00,66.0,-99.9,29.93,ESE,112,11.0,12.0,-999,-99.99,,,-99.99,,2013-03-21 10:53:00,
2013-03-21 06:00:00,66.0,-99.9,29.91,SE,138,9.0,12.0,-999,-99.99,,,-99.99,,2013-03-21 11:00:00,
2013-03-21 06:33:00,66.0,-99.9,29.91,SE,138,9.0,12.0,-999,-99.99,,,-99.99,,2013-03-21 11:33:00,
2013-03-21 06:43:00,66.0,-99.9,29.91,SE,138,9.0,12.0,-999,-99.99,,,-99.99,,2013-03-21 11:43:00,
2013-03-21 06:53:00,66.0,-99.9,29.91,SE,138,9.0,12.0,-999,-99.99,,,-99.99,,2013-03-21 11:53:00,
2013-03-21 07:00:00,66.0,-99.9,29.92,SE,135,4.0,6.0,-999,-99.99,,,-99.99,,2013-03-21 12:00:00,
2013-03-21 07:33:00,66.0,-99.9,29.92,SE,135,4.0,6.0,-999,-99.99,,,-99.99,,2013-03-21 12:33:00,
2013-03-21 07:44:00,66.0,-99.9,29.92,SE,135,4.0,6.0,-999,-99.99,,,-99.99,,2013-03-21 12:44:00,
2013-03-21 07:53:00,66.0,-99.9,29.92,SE,135,4.0,6.0,-999,-99.99,,,-99.99,,2013-03-21 12:53:00,
2013-03-21 08:00:00,66.0,-99.9,29.93,SE,141,6.0,7.0,-999,-99.99,,,-99.99,,2013-03-21 13:00:00,
2013-03-21 08:33:00,66.0,-99.9,29.93,SE,141,6.0,7.0,-999,-99.99,,,-99.99,,2013-03-21 13:33:00,
2013-03-21 08:43:00,66.0,-99.9,29.93,SE,141,6.0,7.0,-999,-99.99,,,-99.99,,2013-03-21 13:43:00,
2013-03-21 08:53:00,66.0,-99.9,29.93,SE,141,6.0,7.0,-999,-99.99,,,-99.99,,2013-03-21 13:53:00,
2013-03-21 09:00:00,68.0,-99.9,29.93,SE,142,6.0,8.0,-999,-99.99,,,-99.99,,2013-03-21 14:00:00,
2013-03-21 09:32:00,68.0,-99.9,29.93,SE,142,6.0,8.0,-999,-99.99,,,-99.99,,2013-03-21 14:32:00,
2013-03-21 09:43:00,68.0,-99.9,29.93,SE,142,6.0,8.0,-999,-99.99,,,-99.99,,2013-03-21 14:43:00,
2013-03-21 09:52:00,68.0,-99.9,29.93,SE,142,6.0,8.0,-999,-99.99,,,-99.99,,2013-03-21 14:52:00,
2013-03-21 10:00:00,69.0,-99.9,29.91,SE,133,7.0,13.0,-999,-99.99,,,-99.99,,2013-03-21 15:00:00,
2013-03-21 10:33:00,69.0,-99.9,29.91,SE,133,7.0,13.0,-999,-99.99,,,-99.99,,2013-03-21 15:33:00,
2013-03-21 10:43:00,69.0,-99.9,29.91,SE,133,7.0,13.0,-999,-99.99,,,-99.99,,2013-03-21 15:43:00,
2013-03-21 10:53:00,69.0,-99.9,29.91,SE,133,7.0,13.0,-999,-99.99,,,-99.99,,2013-03-21 15:53:00,
2013-03-21 11:00:00,71.0,-99.9,29.90,SE,142,10.0,19.0,-999,-99.99,,,-99.99,,2013-03-21 16:00:00,
2013-03-21 11:33:00,71.0,-99.9,29.90,SE,142,10.0,19.0,-999,-99.99,,,-99.99,,2013-03-21 16:33:00,
2013-03-21 11:43:00,71.0,-99.9,29.90,SE,142,10.0,19.0,-999,-99.99,,,-99.99,,2013-03-21 16:43:00,
2013-03-21 11:53:00,71.0,-99.9,29.90,SE,142,10.0,19.0,-999,-99.99,,,-99.99,,2013-03-21 16:53:00,
2013-03-21 12:00:00,70.0,-99.9,29.88,SSE,150,15.0,20.0,-999,-99.99,,,-99.99,,2013-03-21 17:00:00,
2013-03-21 12:33:00,70.0,-99.9,29.88,SSE,150,15.0,20.0,-999,-99.99,,,-99.99,,2013-03-21 17:33:00,
2013-03-21 12:43:00,70.0,-99.9,29.88,SSE,150,15.0,20.0,-999,-99.99,,,-99.99,,2013-03-21 17:43:00,
2013-03-21 12:53:00,70.0,-99.9,29.88,SSE,150,15.0,20.0,-999,-99.99,,,-99.99,,2013-03-21 17:53:00,
2013-03-21 13:00:00,70.0,-99.9,29.85,SE,142,15.0,18.0,-999,-99.99,,,-99.99,,2013-03-21 18:00:00,
2013-03-21 13:33:00,70.0,-99.9,29.85,SE,142,15.0,18.0,-999,-99.99,,,-99.99,,2013-03-21 18:33:00,
2013-03-21 13:43:00,70.0,-99.9,29.85,SE,142,15.0,18.0,-999,-99.99,,,-99.99,,2013-03-21 18:43:00,
2013-03-21 13:52:00,70.0,-99.9,29.85,SE,142,15.0,18.0,-999,-99.99,,,-99.99,,2013-03-21 18:52:00,
2013-03-21 14:00:00,70.0,-99.9,29.81,SE,135,11.0,16.0,-999,-99.99,,,-99.99,,2013-03-21 19:00:00,
2013-03-21 14:32:00,70.0,-99.9,29.81,SE,135,11.0,16.0,-999,-99.99,,,-99.99,,2013-03-21 19:32:00,
2013-03-21 14:43:00,70.0,-99.9,29.81,SE,135,11.0,16.0,-999,-99.99,,,-99.99,,2013-03-21 19:43:00,
2013-03-21 14:53:00,70.0,-99.9,29.81,SE,135,11.0,16.0,-999,-99.99,,,-99.99,,2013-03-21 19:53:00,
2013-03-21 15:00:00,70.0,-99.9,29.77,SE,138,11.0,16.0,-999,-99.99,,,-99.99,,2013-03-21 20:00:00,
2013-03-21 15:33:00,70.0,-99.9,29.77,SE,138,11.0,16.0,-999,-99.99,,,-99.99,,2013-03-21 20:33:00,
2013-03-21 15:43:00,70.0,-99.9,29.77,SE,138,11.0,16.0,-999,-99.99,,,-99.99,,2013-03-21 20:43:00,
2013-03-21 15:53:00,70.0,-99.9,29.77,SE,138,11.0,16.0,-999,-99.99,,,-99.99,,2013-03-21 20:53:00,
2013-03-21 16:00:00,70.0,-99.9,29.72,SE,139,12.0,19.0,-999,-99.99,,,-99.99,,2013-03-21 21:00:00,
2013-03-21 16:33:00,70.0,-99.9,29.72,SE,139,12.0,19.0,-999,-99.99,,,-99.99,,2013-03-21 21:33:00,
2013-03-21 16:43:00,70.0,-99.9,29.72,SE,139,12.0,19.0,-999,-99.99,,,-99.99,,2013-03-21 21:43:00,
2013-03-21 16:53:00,70.0,-99.9,29.72,SE,139,12.0,19.0,-999,-99.99,,,-99.99,,2013-03-21 21:53:00,
2013-03-21 17:00:00,70.0,-99.9,29.71,SE,140,11.0,18.0,-999,-99.99,,,-99.99,,2013-03-21 22:00:00,
2013-03-21 17:34:00,70.0,-99.9,29.71,SE,140,11.0,18.0,-999,-99.99,,,-99.99,,2013-03-21 22:34:00,
2013-03-21 17:43:00,70.0,-99.9,29.71,SE,140,11.0,18.0,-999,-99.99,,,-99.99,,2013-03-21 22:43:00,
2013-03-21 17:53:00,70.0,-99.9,29.71,SE,140,11.0,18.0,-999,-99.99,,,-99.99,,2013-03-21 22:53:00,
2013-03-21 18:00:00,70.0,-99.9,29.69,SE,145,13.0,18.0,-999,-99.99,,,-99.99,,2013-03-21 23:00:00,
2013-03-21 18:33:00,70.0,-99.9,29.69,SE,145,13.0,18.0,-999,-99.99,,,-99.99,,2013-03-21 23:33:00,
2013-03-21 18:43:00,70.0,-99.9,29.69,SE,145,13.0,18.0,-999,-99.99,,,-99.99,,2013-03-21 23:43:00,
2013-03-21 18:53:00,70.0,-99.9,29.69,SE,145,13.0,18.0,-999,-99.99,,,-99.99,,2013-03-21 23:53:00,
2013-03-21 19:00:00,69.0,-99.9,29.69,SE,137,13.0,19.0,-999,-99.99,,,-99.99,,2013-03-22 00:00:00,
2013-03-21 19:32:00,69.0,-99.9,29.69,SE,137,13.0,19.0,-999,-99.99,,,-99.99,,2013-03-22 00:32:00,
2013-03-21 19:42:00,69.0,-99.9,29.69,SE,137,13.0,19.0,-999,-99.99,,,-99.99,,2013-03-22 00:42:00,
2013-03-21 19:52:00,69.0,-99.9,29.69,SE,137,13.0,19.0,-999,-99.99,,,-99.99,,2013-03-22 00:52:00,
2013-03-21 20:00:00,69.0,-99.9,29.69,SE,134,13.0,17.0,-999,-99.99,,,-99.99,,2013-03-22 01:00:00,
2013-03-21 20:33:00,69.0,-99.9,29.69,SE,134,13.0,17.0,-999,-99.99,,,-99.99,,2013-03-22 01:33:00,
2013-03-21 20:43:00,69.0,-99.9,29.69,SE,134,13.0,17.0,-999,-99.99,,,-99.99,,2013-03-22 01:43:00,
2013-03-21 20:53:00,69.0,-99.9,29.69,SE,134,13.0,17.0,-999,-99.99,,,-99.99,,2013-03-22 01:53:00,
2013-03-21 21:00:00,69.0,-99.9,29.69,SE,141,16.0,22.0,-999,-99.99,,,-99.99,,2013-03-22 02:00:00,
2013-03-21 21:32:00,69.0,-99.9,29.69,SE,141,16.0,22.0,-999,-99.99,,,-99.99,,2013-03-22 02:32:00,
2013-03-21 21:43:00,69.0,-99.9,29.69,SE,141,16.0,22.0,-999,-99.99,,,-99.99,,2013-03-22 02:43:00,
2013-03-21 21:53:00,69.0,-99.9,29.69,SE,141,16.0,22.0,-999,-99.99,,,-99.99,,2013-03-22 02:53:00,
2013-03-21 22:00:00,69.0,-99.9,29.72,SSE,148,13.0,19.0,-999,-99.99,,,-99.99,,2013-03-22 03:00:00,
2013-03-21 22:33:00,69.0,-99.9,29.72,SSE,148,13.0,19.0,-999,-99.99,,,-99.99,,2013-03-22 03:33:00,
2013-03-21 22:43:00,69.0,-99.9,29.72,SSE,148,13.0,19.0,-999,-99.99,,,-99.99,,2013-03-22 03:43:00,
2013-03-21 22:53:00,69.0,-99.9,29.72,SSE,148,13.0,19.0,-999,-99.99,,,-99.99,,2013-03-22 03:53:00,
2013-03-21 23:00:00,69.0,-99.9,29.73,SE,140,12.0,17.0,-999,-99.99,,,-99.99,,2013-03-22 04:00:00,
2013-03-21 23:32:00,69.0,-99.9,29.73,SE,140,12.0,17.0,-999,-99.99,,,-99.99,,2013-03-22 04:32:00,
2013-03-21 23:43:00,69.0,-99.9,29.73,SE,140,12.0,17.0,-999,-99.99,,,-99.99,,2013-03-22 04:43:00,
2013-03-21 23:53:00,69.0,-99.9,29.73,SE,140,12.0,17.0,-999,-99.99,,,-99.99,,2013-03-22 04:53:00,